SBGLSBPS

Guest
Details From SBGL - Galeao Antonio Carlos Jombim
To SBPS - Porto Seguro
Flight Number -
Tags decoded
Created
Modified
Stats Distance 487 nm / 902 km
Max Altitude 0 ft / 0 m
Waypoints 4
Social Downloads 5
Likes 0
Share VATSIM

Download

Looking for another format? Having issues loading an existing format? Contact us
Advertisement - Login to hide

Notes

Requested: SBGL ADA SBVT SBPS

Route

SBGL ADA SBVT SBPS

ID Type Via Altitude Latitude Longitude Leg Dist Tot Dist Heading (true) Name
O SBGL APT - 0 ft / 0 m -22.80894˚ -43.24368˚ - 0 nm - Galeao Antonio Carlos Jombim
ADA NDB - 0 ft / 0 m -22.82296˚ -42.09649˚ 63 nm 63 nm 91° / 91° ALDEIA NDB
SBVT APT - 0 ft / 0 m -20.25561˚ -40.28889˚ 184 nm 247 nm 34° / 33° Goiabeiras
O SBPS APT - 0 ft / 0 m -16.43863˚ -39.08092˚ 239 nm 487 nm 17° / 17° Porto Seguro

Altitude Profile

Advertisement - Login to hide

Weather


0- 5 10 15 20 25 30 35+ Temperature / ° C

Clouds and Precipitation
Forecast for 2018-05-26 18:00 UTC. Updated an hour ago

Ground ~20,000 ft ~40,000 ft Winds

SBGL

Details ICAO SBGL (GIG)
Name Galeao Antonio Carlos Jombim
Region Brazil
Timezone America/Sao_Paulo (UTC-3.0)
Stats Elevation 28 ft / 9 m (AMSL)
Location -22.808938° -43.243681°
Runways 2
Magnetic Variation 22.812° W

METAR

SBGL 261800Z 15007KT 9999 FEW025 26/16 Q1020

Decode

TAF

TAF TAF SBGL 261430Z 2618/2724 15010KT 9999 SCT025TN19/2709Z TX26/2717Z TEMPO 2618/2620 6000 RA BKN020 BECMG 2623/2701 10005KT BECMG 2703/2705 SCT015 BECMG 2708/2710 02005KT BECMG 2712/2714 08005KT FEW020 BECMG 2715/2717 14015KT RMK PHQ

Decode

Departure Runways

ID Width Length Bearing (true) Bearing (mag) Surface Threshold Offset Overrun Length
10 148 ft / 45 m 13,128 ft / 4,001 m 74.39° 97.20° Concrete 0 ft / 0 m 175 ft / 53 m
15 154 ft / 47 m 10,418 ft / 3,175 m 125.78° 148.59° Asphalt 0 ft / 0 m 185 ft / 56 m
28 148 ft / 45 m 13,128 ft / 4,001 m 254.38° 277.19° Concrete 0 ft / 0 m 175 ft / 53 m
33 154 ft / 47 m 10,418 ft / 3,175 m 305.78° 328.59° Asphalt 0 ft / 0 m 185 ft / 56 m

SBPS

Details ICAO SBPS (BPS)
Name Porto Seguro
Region Brazil
Timezone America/Bahia (UTC-3.0)
Stats Elevation 168 ft / 51 m (AMSL)
Location -16.438625° -39.080917°
Runways 1
Magnetic Variation 23.889° W

METAR

SBPS 261800Z VRB05KT 9999 VCSH SCT010 BKN020 OVC100 24/21 Q1017

Decode

TAF

TAF SBPS 261600Z 2618/2718 17007KT 7000 SCT012 BKN017 TN20/2705Z TX26/2717Z TEMPO 2620/2623 4000 RA BKN012 BECMG 2700/270125006KT TEMPO 2703/2710 4000 RA BKN006 BECMG 2711/2713 17008KT TEMPO 2714/2717 4000 RA BKN007 RMK PEI

Decode

Destination Runways

ID Width Length Bearing (true) Bearing (mag) Surface Threshold Offset Overrun Length
10 148 ft / 45 m 6,532 ft / 1,991 m 74.06° 97.95° Asphalt 0 ft / 0 m 195 ft / 59 m
28 148 ft / 45 m 6,532 ft / 1,991 m 254.06° 277.95° Asphalt 0 ft / 0 m 0 ft / 0 m

Popular Alternatives